Time;durP1;ratioP1;P1;durP2;ratioP2;P2;SDS_P1;SDS_P2;PMS_P1;PMS_P2;Temp;Humidity;BMP_temperature;BMP_pressure;BME280_temperature;BME280_humidity;BME280_pressure;Samples;Min_cycle;Max_cycle;Signal;HPM_P1;HPM_P2
2023/11/19 00:00:12;;;;;;;34.60;20.45;;;;;;;;;;5091342;28;20043;-72
2023/11/19 00:03:15;;;;;;;39.28;21.23;;;;;;;;;;5090919;28;20047;-73
2023/11/19 00:06:20;;;;;;;34.38;20.17;;;;;;;;;;5090921;28;20043;-73
2023/11/19 00:09:25;;;;;;;33.65;20.95;;;;;;;;;;5091141;28;20055;-73
2023/11/19 00:12:29;;;;;;;39.72;20.13;;;;;;;;;;5091106;28;20039;-73
2023/11/19 00:15:34;;;;;;;36.00;21.15;;;;;;;;;;5091189;28;20039;-73
2023/11/19 00:18:39;;;;;;;34.13;21.10;;;;;;;;;;5091181;28;20047;-73
2023/11/19 00:21:43;;;;;;;40.50;21.35;;;;;;;;;;5090676;28;20055;-73
2023/11/19 00:24:47;;;;;;;35.13;19.45;;;;;;;;;;5090807;28;20051;-73
2023/11/19 00:27:53;;;;;;;31.88;17.98;;;;;;;;;;5078219;28;20047;-73
2023/11/19 00:30:57;;;;;;;50.33;21.92;;;;;;;;;;5078485;28;20055;-73
2023/11/19 00:34:02;;;;;;;39.20;20.33;;;;;;;;;;5078141;28;20429;-73
2023/11/19 00:37:06;;;;;;;39.38;19.42;;;;;;;;;;5090982;28;20495;-73
2023/11/19 00:40:11;;;;;;;36.17;18.50;;;10.60;95.50;;;;;;5090816;28;20047;-73
2023/11/19 00:43:16;;;;;;;30.80;16.70;;;;;;;;;;5090451;28;20063;-73
2023/11/19 00:46:20;;;;;;;35.45;18.70;;;;;;;;;;5078346;28;20043;-73
2023/11/19 00:49:25;;;;;;;31.23;18.02;;;;;;;;;;5090855;28;20039;-73
2023/11/19 00:52:29;;;;;;;34.30;18.08;;;;;;;;;;5080500;28;20047;-72
2023/11/19 00:55:33;;;;;;;26.70;16.92;;;;;;;;;;5081996;28;20047;-73
2023/11/19 00:58:38;;;;;;;32.00;16.48;;;;;;;;;;5094269;28;20558;-73
2023/11/19 01:01:42;;;;;;;29.75;16.52;;;;;;;;;;5081912;28;20047;-73
2023/11/19 01:04:46;;;;;;;27.75;16.48;;;;;;;;;;5094371;28;20051;-72
2023/11/19 01:07:53;;;;;;;26.58;16.27;;;;;;;;;;5081209;28;20043;-73
2023/11/19 01:10:57;;;;;;;28.35;15.98;;;;;;;;;;5094064;28;20047;-73
2023/11/19 01:14:02;;;;;;;35.58;17.98;;;;;;;;;;5094204;28;20043;-73
2023/11/19 01:17:06;;;;;;;37.15;16.70;;;;;;;;;;5094176;28;20039;-73
2023/11/19 01:20:13;;;;;;;30.83;17.70;;;;;;;;;;5081407;28;20051;-73
2023/11/19 01:23:17;;;;;;;33.15;16.75;;;;;;;;;;5093512;28;20047;-73
2023/11/19 01:26:21;;;;;;;31.27;18.70;;;;;;;;;;5094183;28;20039;-73
2023/11/19 01:29:26;;;;;;;30.67;17.80;;;;;;;;;;5081099;28;20047;-73
2023/11/19 01:32:30;;;;;;;25.05;17.33;;;;;;;;;;5093702;28;20047;-73
2023/11/19 01:35:37;;;;;;;33.20;18.58;;;;;;;;;;5093349;28;20522;-73
2023/11/19 01:38:41;;;;;;;31.83;18.13;;;;;;;;;;5093663;28;20047;-73
2023/11/19 01:41:45;;;;;;;27.60;17.02;;;;;;;;;;5081059;28;20043;-73
2023/11/19 01:45:00;;;;;;;40.67;17.25;;;10.30;96.60;;;;;;5093541;28;20054;-73
2023/11/19 01:48:05;;;;;;;30.50;17.08;;;9.80;96.70;;;;;;5093590;28;20055;-73
2023/11/19 01:51:09;;;;;;;31.33;17.85;;;;;;;;;;5093405;28;20047;-73
2023/11/19 01:54:17;;;;;;;31.10;17.48;;;9.60;96.30;;;;;;5093337;28;20038;-73
2023/11/19 01:57:23;;;;;;;27.75;16.77;;;9.80;96.70;;;;;;5093059;28;20035;-73
2023/11/19 02:00:27;;;;;;;30.60;16.58;;;;;;;;;;5080465;28;20039;-73
2023/11/19 02:03:34;;;;;;;26.95;16.23;;;9.30;96.80;;;;;;5079470;28;20475;-73
2023/11/19 02:06:41;;;;;;;30.33;15.90;;;9.90;97.00;;;;;;5080322;28;20043;-73
2023/11/19 02:09:45;;;;;;;28.63;16.45;;;9.80;97.40;;;;;;5080982;28;20395;-73
2023/11/19 02:12:49;;;;;;;29.38;17.05;;;8.20;96.50;;;;;;5093095;28;20043;-73
2023/11/19 02:15:55;;;;;;;26.00;16.52;;;9.40;95.80;;;;;;5080666;28;20404;-73
2023/11/19 02:18:59;;;;;;;30.73;17.23;;;9.30;97.20;;;;;;5080592;28;20055;-73
2023/11/19 02:22:03;;;;;;;26.58;15.90;;;9.30;97.50;;;;;;5080256;28;20078;-73
2023/11/19 02:25:10;;;;;;;28.45;16.83;;;9.20;97.70;;;;;;5068838;28;20035;-73
2023/11/19 02:28:16;;;;;;;28.17;15.77;;;;;;;;;;5092550;28;20051;-73
2023/11/19 02:31:22;;;;;;;31.88;15.95;;;;;;;;;;5080017;28;20047;-73
2023/11/19 02:34:26;;;;;;;26.95;15.82;;;;;;;;;;5092809;28;20066;-73
2023/11/19 02:37:31;;;;;;;27.45;16.30;;;;;;;;;;5092553;28;20122;-74
2023/11/19 02:40:35;;;;;;;33.33;15.25;;;;;;;;;;5080236;28;20051;-73
2023/11/19 02:43:40;;;;;;;29.00;15.60;;;;;;;;;;5092283;28;20407;-73
2023/11/19 02:46:44;;;;;;;28.60;16.40;;;;;;;;;;5079805;28;20047;-74
2023/11/19 02:49:49;;;;;;;26.77;15.27;;;;;;;;;;5079712;28;20380;-73
2023/11/19 02:52:58;;;;;;;33.33;15.30;;;9.50;97.20;;;;;;5092374;28;20117;-73
2023/11/19 02:56:11;;;;;;;25.25;15.77;;;;;;;;;;5091926;28;20039;-74
2023/11/19 02:59:27;;;;;;;27.67;15.93;;;;;;;;;;5092174;28;20109;-73
2023/11/19 03:02:43;;;;;;;22.35;14.80;;;;;;;;;;5091888;28;20072;-73
2023/11/19 03:05:47;;;;;;;23.67;14.75;;;7.30;97.30;;;;;;5092143;28;20055;-73
2023/11/19 03:08:52;;;;;;;25.40;15.48;;;7.60;97.40;;;;;;5092043;28;20419;-73
2023/11/19 03:11:56;;;;;;;23.67;14.32;;;8.40;97.70;;;;;;5079581;28;20051;-73
2023/11/19 03:14:59;;;;;;;32.38;15.30;;;8.70;97.50;;;;;;5091766;28;20043;-73
2023/11/19 03:18:03;;;;;;;26.85;15.23;;;8.90;97.80;;;;;;5091987;28;20047;-73
2023/11/19 03:21:08;;;;;;;26.45;14.55;;;9.10;98.20;;;;;;5091712;28;20383;-73
2023/11/19 03:24:15;;;;;;;26.65;15.30;;;8.80;98.20;;;;;;5079087;28;20067;-73
2023/11/19 03:27:20;;;;;;;24.85;14.23;;;9.10;97.30;;;;;;5078992;28;20043;-73
2023/11/19 03:30:24;;;;;;;22.05;13.80;;;9.10;97.40;;;;;;5079243;28;20383;-73
2023/11/19 03:33:29;;;;;;;20.83;13.00;;;9.00;97.50;;;;;;5079065;28;20043;-73
2023/11/19 03:36:33;;;;;;;22.70;13.02;;;9.00;97.70;;;;;;5091359;28;20051;-73
2023/11/19 03:39:38;;;;;;;20.48;11.98;;;;;;;;;;5091282;28;20043;-74
2023/11/19 03:42:42;;;;;;;20.70;13.10;;;8.30;99.10;;;;;;5091185;28;20051;-73
2023/11/19 03:45:46;;;;;;;21.33;12.50;;;8.20;99.50;;;;;;5091108;28;20043;-74
2023/11/19 03:48:50;;;;;;;24.42;12.73;;;9.00;98.60;;;;;;5078802;28;20043;-73
2023/11/19 03:51:54;;;;;;;21.73;12.38;;;8.60;99.20;;;;;;5091314;28;20047;-73
2023/11/19 03:54:58;;;;;;;17.63;12.43;;;8.60;98.30;;;;;;5091545;28;20035;-74
2023/11/19 03:58:03;;;;;;;20.55;12.45;;;9.00;98.50;;;;;;5091278;28;20035;-74
2023/11/19 04:01:13;;;;;;;24.05;12.50;;;8.70;98.90;;;;;;5092145;28;20047;-74
2023/11/19 04:04:18;;;;;;;18.17;11.73;;;;;;;;;;5079276;28;20051;-73
2023/11/19 04:07:22;;;;;;;23.58;12.50;;;8.50;99.10;;;;;;5090977;28;20051;-73
2023/11/19 04:10:27;;;;;;;23.02;11.82;;;8.70;97.90;;;;;;5078801;28;20407;-73
2023/11/19 04:13:31;;;;;;;24.50;11.85;;;8.50;98.10;;;;;;5090930;28;20164;-73
2023/11/19 04:16:35;;;;;;;17.88;11.10;;;8.30;99.90;;;;;;5078495;28;20039;-73
2023/11/19 04:19:43;;;;;;;19.02;13.25;;;8.50;99.90;;;;;;5078924;28;20047;-73
2023/11/19 04:22:47;;;;;;;21.70;13.25;;;8.60;99.90;;;;;;5091582;28;20055;-73
2023/11/19 04:25:51;;;;;;;17.05;11.60;;;8.50;99.90;;;;;;5091481;28;20498;-73
2023/11/19 04:28:55;;;;;;;20.67;11.45;;;7.70;99.60;;;;;;5095629;28;20063;-73
2023/11/19 04:32:00;;;;;;;18.20;10.95;;;8.50;99.70;;;;;;5095277;28;20040;-73
2023/11/19 04:35:06;;;;;;;17.55;12.35;;;9.30;98.80;;;;;;5082693;28;20043;-73
2023/11/19 04:38:10;;;;;;;18.73;11.25;;;8.40;99.40;;;;;;5095054;28;20043;-73
2023/11/19 04:41:15;;;;;;;18.20;11.30;;;8.40;99.30;;;;;;5094837;28;20063;-73
2023/11/19 04:44:19;;;;;;;16.80;10.55;;;8.70;98.40;;;;;;5094813;28;20047;-73
2023/11/19 04:47:22;;;;;;;15.80;10.20;;;8.00;99.40;;;;;;5094713;28;20055;-73
2023/11/19 04:50:27;;;;;;;17.88;10.60;;;8.50;98.40;;;;;;5094645;28;20047;-73
2023/11/19 04:53:34;;;;;;;21.90;11.65;;;7.90;99.80;;;;;;5094481;28;20039;-73
2023/11/19 04:56:38;;;;;;;31.38;11.77;;;8.00;99.80;;;;;;5094334;28;20051;-73
2023/11/19 04:59:42;;;;;;;19.02;10.52;;;8.00;99.60;;;;;;5094429;28;20035;-73
2023/11/19 05:02:46;;;;;;;21.80;11.77;;;11.60;99.90;;;;;;5094303;28;20058;-73
2023/11/19 05:05:50;;;;;;;21.45;12.57;;;8.00;99.80;;;;;;5094433;28;20043;-73
2023/11/19 05:08:54;;;;;;;21.73;12.27;;;8.10;99.80;;;;;;5094161;28;20043;-73
2023/11/19 05:11:58;;;;;;;17.55;11.48;;;8.00;99.90;;;;;;5094353;28;20047;-73
2023/11/19 05:15:02;;;;;;;24.45;11.13;;;9.00;98.80;;;;;;5093990;28;20534;-73
2023/11/19 05:18:08;;;;;;;23.85;11.90;;;7.80;99.90;;;;;;5081638;28;20047;-73
2023/11/19 05:21:12;;;;;;;18.67;12.07;;;10.80;99.90;;;;;;5081607;28;20110;-73
2023/11/19 05:24:16;;;;;;;18.92;11.07;;;8.30;98.90;;;;;;5094073;28;20051;-73
2023/11/19 05:27:20;;;;;;;20.65;10.82;;;10.80;99.90;;;;;;5093726;28;20047;-73
2023/11/19 05:30:24;;;;;;;18.90;10.65;;;7.80;99.90;;;;;;5094076;28;20059;-73
2023/11/19 05:33:28;;;;;;;18.90;11.07;;;;;;;;;;5094304;28;20047;-73
2023/11/19 05:36:33;;;;;;;17.15;10.50;;;7.70;99.90;;;;;;5094236;28;20047;-73
2023/11/19 05:39:36;;;;;;;23.85;11.35;;;7.80;99.90;;;;;;5094570;28;20047;-74
2023/11/19 05:42:41;;;;;;;20.75;11.30;;;7.90;99.90;;;;;;5093839;28;20415;-72
2023/11/19 05:45:45;;;;;;;21.23;11.68;;;8.30;99.40;;;;;;5093844;28;20059;-73
2023/11/19 05:48:49;;;;;;;19.15;11.35;;;8.40;99.60;;;;;;5094038;28;20051;-73
2023/11/19 05:51:55;;;;;;;20.83;12.07;;;8.30;99.90;;;;;;5094285;28;20383;-73
2023/11/19 05:55:04;;;;;;;18.35;10.70;;;8.60;99.70;;;;;;5093433;28;20047;-73
2023/11/19 05:58:11;;;;;;;17.27;10.50;;;8.30;99.90;;;;;;5095048;28;20198;-73
2023/11/19 06:01:15;;;;;;;21.90;10.65;;;8.30;99.90;;;;;;5094295;28;20388;-73
2023/11/19 06:04:19;;;;;;;19.48;10.65;;;8.20;99.90;;;;;;5081832;28;20055;-74
2023/11/19 06:07:23;;;;;;;18.70;9.88;;;8.50;99.30;;;;;;5093679;28;20055;-74
2023/11/19 06:10:30;;;;;;;19.15;10.75;;;8.20;98.90;;;;;;5094378;28;20118;-72
2023/11/19 06:13:34;;;;;;;18.23;10.00;;;8.70;99.10;;;;;;5094339;28;20072;-72
2023/11/19 06:16:39;;;;;;;16.80;10.35;;;;;;;;;;5094124;28;20162;-73
2023/11/19 06:19:44;;;;;;;24.05;11.27;;;8.30;99.90;;;;;;5093456;28;20043;-73
2023/11/19 06:22:48;;;;;;;20.80;11.10;;;8.10;99.60;;;;;;5093238;28;20043;-74
2023/11/19 06:25:53;;;;;;;21.58;11.65;;;8.10;99.70;;;;;;5081133;28;20043;-74
2023/11/19 06:28:57;;;;;;;18.42;10.75;;;7.80;99.90;;;;;;5093493;28;20645;-73
2023/11/19 06:32:01;;;;;;;22.05;11.85;;;8.50;98.90;;;;;;5093822;28;20058;-73
2023/11/19 06:35:05;;;;;;;17.55;12.07;;;8.00;99.90;;;;;;5093037;28;20534;-73
2023/11/19 06:38:09;;;;;;;17.98;10.90;;;8.60;99.10;;;;;;5093250;28;20055;-74
2023/11/19 06:41:13;;;;;;;15.00;11.15;;;;;;;;;;5092953;28;20047;-73
2023/11/19 06:44:18;;;;;;;23.20;11.52;;;8.90;99.30;;;;;;5093056;28;20046;-74
2023/11/19 06:47:21;;;;;;;21.27;11.05;;;8.10;99.90;;;;;;5092964;28;20054;-73
2023/11/19 06:50:26;;;;;;;23.67;11.70;;;;;;;;;;5093446;28;20055;-73
2023/11/19 06:53:30;;;;;;;21.48;11.60;;;8.50;99.90;;;;;;5093037;28;20153;-73
2023/11/19 06:56:33;;;;;;;25.10;12.30;;;8.40;99.90;;;;;;5092529;28;20051;-73
2023/11/19 06:59:38;;;;;;;28.25;13.40;;;8.70;99.90;;;;;;5092752;28;20059;-73
2023/11/19 07:02:42;;;;;;;25.13;13.10;;;9.20;99.20;;;;;;5092467;28;20055;-73
2023/11/19 07:05:46;;;;;;;20.55;11.40;;;8.20;99.00;;;;;;5080190;28;20043;-74
2023/11/19 07:08:50;;;;;;;21.23;13.27;;;8.50;98.20;;;;;;5080406;28;20530;-74
2023/11/19 07:11:54;;;;;;;25.67;13.95;;;;;;;;;;5092763;28;20047;-74
2023/11/19 07:14:58;;;;;;;16.88;10.65;;;;;;;;;;5092818;28;20043;-74
2023/11/19 07:18:02;;;;;;;23.60;14.35;;;;;;;;;;5092754;28;20051;-74
2023/11/19 07:21:10;;;;;;;73.95;35.63;;;;;;;;;;5080920;28;20039;-74
2023/11/19 07:24:14;;;;;;;55.80;28.13;;;;;;;;;;5094174;28;20055;-74
2023/11/19 07:27:18;;;;;;;37.08;19.33;;;;;;;;;;5094663;28;20063;-73
2023/11/19 07:30:23;;;;;;;33.75;18.45;;;;;;;;;;5093993;28;20046;-73
2023/11/19 07:33:27;;;;;;;25.38;14.45;;;;;;;;;;5093931;28;20051;-73
2023/11/19 07:36:32;;;;;;;23.90;12.95;;;;;;;;;;5093704;28;20051;-73
2023/11/19 07:39:40;;;;;;;19.55;11.15;;;;;;;;;;5069992;28;20700;-74
2023/11/19 07:42:45;;;;;;;20.40;11.50;;;;;;;;;;5092630;28;20039;-73
2023/11/19 07:45:49;;;;;;;15.68;9.57;;;;;;;;;;5092589;28;20051;-73
2023/11/19 07:48:54;;;;;;;15.35;9.18;;;;;;;;;;5092229;28;20038;-73
2023/11/19 07:51:58;;;;;;;14.68;8.75;;;;;;;;;;5093450;28;20383;-73
2023/11/19 07:55:02;;;;;;;14.98;8.98;;;;;;;;;;5094330;28;20036;-73
2023/11/19 07:58:07;;;;;;;12.93;8.13;;;;;;;;;;5093943;28;20036;-73
2023/11/19 08:01:12;;;;;;;14.15;8.30;;;;;;;;;;5092964;28;20360;-73
2023/11/19 08:04:16;;;;;;;16.85;9.25;;;;;;;;;;5072195;28;20047;-73
2023/11/19 08:07:21;;;;;;;13.63;7.90;;;;;;;;;;5096762;28;20047;-73
2023/11/19 08:10:25;;;;;;;14.70;8.15;;;;;;;;;;5096900;28;20061;-72
2023/11/19 08:13:30;;;;;;;11.35;7.40;;;;;;;;;;5097183;28;20032;-73
2023/11/19 08:16:36;;;;;;;17.08;7.03;;;;;;;;;;5098179;28;20036;-73
2023/11/19 08:19:40;;;;;;;12.88;7.45;;;;;;;;;;5096336;28;20063;-74
2023/11/19 08:22:45;;;;;;;12.32;6.30;;;;;;;;;;5097863;28;20032;-73
2023/11/19 08:25:49;;;;;;;10.23;6.45;;;;;;;;;;5085491;28;20124;-73
2023/11/19 08:28:55;;;;;;;9.85;6.50;;;;;;;;;;5085087;28;20036;-73
2023/11/19 08:32:01;;;;;;;11.80;6.55;;;;;;;;;;5098250;28;20044;-72
2023/11/19 08:35:09;;;;;;;13.15;7.07;;;;;;;;;;5098045;28;20036;-73
2023/11/19 08:38:13;;;;;;;15.88;7.68;;;;;;;;;;5098435;28;20044;-73
2023/11/19 08:41:19;;;;;;;10.52;5.90;;;;;;;;;;5097133;28;20032;-73
2023/11/19 08:44:23;;;;;;;12.93;7.28;;;;;;;;;;5097582;28;20404;-73
2023/11/19 08:47:28;;;;;;;13.50;7.43;;;;;;;;;;5098247;28;20047;-74
2023/11/19 08:50:32;;;;;;;11.43;6.80;;;;;;;;;;5099219;28;20048;-73
2023/11/19 08:53:36;;;;;;;10.63;6.43;;;;;;;;;;5086089;28;20028;-73
2023/11/19 08:56:41;;;;;;;15.70;8.52;;;;;;;;;;5097432;28;20040;-75
2023/11/19 08:59:45;;;;;;;13.95;7.18;;;;;;;;;;5087308;28;20043;-73
2023/11/19 09:02:49;;;;;;;13.50;6.88;;;;;;;;;;5097820;28;20028;-73
2023/11/19 09:05:54;;;;;;;8.98;5.50;;;;;;;;;;5098079;28;20248;-73
2023/11/19 09:09:02;;;;;;;18.88;8.52;;;;;;;;;;5096107;28;20048;-73
2023/11/19 09:12:07;;;;;;;11.77;7.00;;;;;;;;;;5097820;28;20379;-72
2023/11/19 09:15:12;;;;;;;11.23;6.60;;;;;;;;;;5085505;28;20040;-73
2023/11/19 09:18:16;;;;;;;11.23;6.70;;;;;;;;;;5097527;28;20032;-74
2023/11/19 09:21:20;;;;;;;11.48;7.57;;;;;;;;;;5097852;28;20372;-72
2023/11/19 09:24:30;;;;;;;13.02;7.70;;;;;;;;;;5097116;28;20051;-74
2023/11/19 09:27:35;;;;;;;18.98;7.95;;;;;;;;;;5096369;28;20036;-74
2023/11/19 09:30:39;;;;;;;11.30;6.38;;;;;;;;;;5082682;28;20036;-74
2023/11/19 09:33:44;;;;;;;10.43;6.18;;;;;;;;;;5096904;28;20040;-73
2023/11/19 09:36:48;;;;;;;10.52;6.03;;;;;;;;;;5095490;28;20043;-74
2023/11/19 09:39:53;;;;;;;8.85;5.75;;;;;;;;;;5097076;28;20032;-73
2023/11/19 09:42:58;;;;;;;10.85;5.40;;;;;;;;;;5097254;28;20036;-73
2023/11/19 09:46:06;;;;;;;7.82;5.20;;;;;;;;;;5097325;28;20055;-73
2023/11/19 09:49:11;;;;;;;11.52;6.45;;;;;;;;;;5097091;28;20028;-75
2023/11/19 09:52:15;;;;;;;10.82;4.72;;;;;;;;;;5096454;28;20047;-74
2023/11/19 09:55:20;;;;;;;7.65;4.68;;;;;;;;;;5096866;28;20500;-74
2023/11/19 09:58:25;;;;;;;8.70;5.80;;;;;;;;;;5096842;28;20040;-74
2023/11/19 10:01:31;;;;;;;16.33;7.53;;;;;;;;;;5097100;28;20040;-73
2023/11/19 10:04:37;;;;;;;11.70;7.05;;;;;;;;;;5098040;28;20047;-73
2023/11/19 10:07:41;;;;;;;15.63;7.95;;;;;;;;;;5098220;28;20439;-75
2023/11/19 10:10:45;;;;;;;14.50;6.85;;;;;;;;;;5097301;28;20032;-74
2023/11/19 10:13:50;;;;;;;6.80;4.70;;;;;;;;;;5097804;28;20036;-73
2023/11/19 10:16:56;;;;;;;8.90;5.40;;;;;;;;;;5084770;28;20039;-73
2023/11/19 10:20:02;;;;;;;15.40;7.88;;;;;;;;;;5086045;28;20028;-73
2023/11/19 10:23:07;;;;;;;10.77;6.50;;;;;;;;;;5082493;28;20032;-74
2023/11/19 10:26:12;;;;;;;12.82;7.03;;;19.50;79.00;;;;;;5097401;28;20039;-72
2023/11/19 10:29:16;;;;;;;11.07;6.15;;;;;;;;;;5095354;28;20059;-72
2023/11/19 10:32:21;;;;;;;8.55;5.20;;;;;;;;;;5098293;28;20031;-73
2023/11/19 10:35:25;;;;;;;8.52;4.82;;;;;;;;;;5084022;28;20215;-73
2023/11/19 10:38:30;;;;;;;8.25;5.00;;;;;;;;;;5094927;28;20028;-72
2023/11/19 10:41:35;;;;;;;8.10;4.18;;;;;;;;;;5094105;28;20044;-75
2023/11/19 10:44:39;;;;;;;7.35;4.55;;;;;;;;;;5096045;28;20051;-72
2023/11/19 10:47:43;;;;;;;8.57;4.68;;;;;;;;;;5094125;28;20028;-73
2023/11/19 10:50:56;;;;;;;7.32;5.00;;;19.50;78.70;;;;;;5093164;28;20040;-74
2023/11/19 10:54:10;;;;;;;7.68;5.03;;;20.50;78.80;;;;;;5093226;28;20649;-73
2023/11/19 10:57:19;;;;;;;7.05;4.15;;;19.40;78.60;;;;;;5093811;28;20047;-73
2023/11/19 11:00:25;;;;;;;6.93;3.70;;;19.70;78.70;;;;;;5094447;28;20028;-75
2023/11/19 11:03:40;;;;;;;8.18;3.75;;;21.00;80.60;;;;;;5082184;28;20043;-72
2023/11/19 11:06:45;;;;;;;9.13;4.28;;;;;;;;;;5095746;28;20396;-73
2023/11/19 11:09:51;;;;;;;4.68;3.53;;;19.10;80.00;;;;;;5096971;28;20467;-73
2023/11/19 11:12:59;;;;;;;5.63;3.60;;;19.20;80.00;;;;;;5096689;28;20043;-74
2023/11/19 11:16:07;;;;;;;4.03;2.83;;;19.50;79.90;;;;;;5096801;28;20039;-74
2023/11/19 11:19:13;;;;;;;4.85;3.25;;;;;;;;;;5095984;28;20698;-74
2023/11/19 11:22:18;;;;;;;8.15;4.72;;;20.10;81.70;;;;;;5095938;28;20039;-73
2023/11/19 11:25:37;;;;;;;9.20;4.07;;;18.90;81.30;;;;;;5094828;28;20059;-72
2023/11/19 11:28:44;;;;;;;8.30;4.07;;;;;;;;;;5093655;28;20506;-74
2023/11/19 11:31:48;;;;;;;5.60;3.78;;;;;;;;;;5094787;28;20039;-73
2023/11/19 11:35:13;;;;;;;4.90;3.28;;;18.70;81.80;;;;;;5093995;28;20032;-73
2023/11/19 11:38:22;;;;;;;6.45;3.15;;;19.60;82.30;;;;;;5092714;28;20043;-73
2023/11/19 11:41:26;;;;;;;6.60;4.32;;;;;;;;;;5094589;28;20047;-74
2023/11/19 11:44:58;;;;;;;6.40;3.53;;;18.60;81.00;;;;;;5093877;28;20024;-73
2023/11/19 11:48:19;;;;;;;;;;;18.00;81.80;;;;;;5095760;28;20047;-74
2023/11/19 11:51:42;;;;;;;5.32;3.53;;;18.80;82.40;;;;;;5093882;28;19935;-74
2023/11/19 11:54:48;;;;;;;8.27;3.97;;;;;;;;;;5080888;28;20395;-74
2023/11/19 11:57:53;;;;;;;10.07;4.80;;;;;;;;;;5094979;28;20032;-74
2023/11/19 12:00:58;;;;;;;6.68;4.20;;;18.50;84.20;;;;;;5069758;28;20036;-75
2023/11/19 12:04:04;;;;;;;7.85;4.55;;;19.00;84.60;;;;;;5093712;28;20051;-75
2023/11/19 12:07:17;;;;;;;6.50;3.70;;;17.30;83.90;;;;;;5080056;28;20404;-74
2023/11/19 12:10:22;;;;;;;7.07;3.40;;;;;;;;;;5092208;28;20043;-73
2023/11/19 12:14:03;;;;;;;8.38;4.35;;;18.40;85.50;;;;;;5092835;28;20044;-74
2023/11/19 12:17:26;;;;;;;;;;;18.40;86.00;;;;;;5093153;28;20668;-74
2023/11/19 12:20:36;;;;;;;13.63;6.82;;;18.20;85.70;;;;;;5093214;28;19931;-73
2023/11/19 12:23:47;;;;;;;11.30;6.43;;;19.60;86.60;;;;;;5080568;28;20043;-74
2023/11/19 12:26:56;;;;;;;7.75;4.50;;;18.50;85.90;;;;;;5093016;28;20043;-74
2023/11/19 12:30:02;;;;;;;5.80;4.30;;;18.40;86.20;;;;;;5093255;28;20043;-74
2023/11/19 12:33:09;;;;;;;5.38;3.67;;;;;;;;;;5094014;28;20490;-75
2023/11/19 12:36:14;;;;;;;9.43;4.50;;;;;;;;;;5094129;28;20044;-74
2023/11/19 12:39:19;;;;;;;7.63;4.32;;;;;;;;;;5093006;28;20040;-75
2023/11/19 12:42:37;;;;;;;6.15;4.07;;;20.20;87.50;;;;;;5080267;28;20429;-74
2023/11/19 12:45:41;;;;;;;6.60;3.22;;;;;;;;;;5092869;28;20051;-74
2023/11/19 12:48:47;;;;;;;11.00;5.05;;;18.00;87.30;;;;;;5083228;28;20036;-73
2023/11/19 12:51:52;;;;;;;7.82;4.72;;;;;;;;;;5096281;28;20047;-74
2023/11/19 12:54:58;;;;;;;8.95;5.78;;;;;;;;;;5096757;28;20028;-75
2023/11/19 12:58:02;;;;;;;10.00;6.10;;;;;;;;;;5098063;28;20036;-72
2023/11/19 13:01:10;;;;;;;13.93;9.65;;;18.10;88.60;;;;;;5097871;28;20467;-74
2023/11/19 13:04:20;;;;;;;12.05;7.80;;;18.40;88.90;;;;;;5098611;28;20537;-74
2023/11/19 13:07:25;;;;;;;8.27;5.28;;;;;;;;;;5095952;28;20125;-73
2023/11/19 13:10:30;;;;;;;7.18;3.80;;;;;;;;;;5098202;28;20031;-73
2023/11/19 13:14:11;;;;;;;6.82;3.67;;;18.00;89.70;;;;;;5084876;28;20460;-74
2023/11/19 13:17:16;;;;;;;5.47;3.30;;;;;;;;;;5098346;28;20506;-73
2023/11/19 13:20:21;;;;;;;8.52;4.82;;;;;;;;;;5083580;28;20036;-73
2023/11/19 13:23:25;;;;;;;9.82;5.50;;;;;;;;;;5097833;28;20044;-74
2023/11/19 13:26:29;;;;;;;4.97;3.20;;;;;;;;;;5096995;28;20044;-72
2023/11/19 13:29:36;;;;;;;5.28;3.42;;;18.00;90.10;;;;;;5096962;28;20032;-75
2023/11/19 13:32:40;;;;;;;4.55;3.03;;;;;;;;;;5096228;28;20043;-74
2023/11/19 13:35:44;;;;;;;4.43;2.55;;;;;;;;;;5095006;28;20040;-75
2023/11/19 13:38:48;;;;;;;7.68;3.40;;;;;;;;;;5095466;28;20036;-75
2023/11/19 13:41:53;;;;;;;5.35;2.90;;;;;;;;;;5095071;28;20040;-72
2023/11/19 13:44:57;;;;;;;8.18;2.95;;;;;;;;;;5094552;28;20036;-73
2023/11/19 13:48:01;;;;;;;7.35;2.58;;;;;;;;;;5095962;28;20028;-76
2023/11/19 13:51:07;;;;;;;6.15;2.63;;;;;;;;;;5083199;28;20044;-75
2023/11/19 13:54:14;;;;;;;4.40;2.60;;;;;;;;;;5095557;28;20040;-75
2023/11/19 13:57:18;;;;;;;6.57;2.95;;;;;;;;;;5095508;28;20047;-74
2023/11/19 14:00:24;;;;;;;6.60;3.63;;;;;;;;;;5094238;28;20036;-75
2023/11/19 14:03:28;;;;;;;5.18;3.20;;;;;;;;;;5082083;28;20032;-74
2023/11/19 14:06:32;;;;;;;4.20;2.60;;;;;;;;;;5096611;28;20052;-73
2023/11/19 14:09:37;;;;;;;8.27;3.50;;;;;;;;;;5096294;28;20083;-75
2023/11/19 14:12:43;;;;;;;3.45;2.50;;;;;;;;;;5082627;28;20032;-75
2023/11/19 14:15:47;;;;;;;5.60;3.08;;;;;;;;;;5095944;28;20032;-75
2023/11/19 14:18:51;;;;;;;7.90;4.15;;;;;;;;;;5095668;28;20357;-77
2023/11/19 14:21:56;;;;;;;8.38;6.10;;;;;;;;;;5095524;28;20036;-74
2023/11/19 14:25:00;;;;;;;12.20;8.00;;;;;;;;;;5094644;28;20047;-74
2023/11/19 14:28:05;;;;;;;6.75;4.13;;;;;;;;;;5095166;28;20063;-74
2023/11/19 14:31:09;;;;;;;7.15;3.60;;;;;;;;;;5094621;28;20076;-73
2023/11/19 14:34:14;;;;;;;7.03;2.95;;;17.50;91.40;;;;;;5094614;28;20036;-75
2023/11/19 14:37:20;;;;;;;6.53;2.78;;;;;;;;;;5081682;28;20036;-75
2023/11/19 14:40:24;;;;;;;6.82;2.90;;;;;;;;;;5094477;28;20096;-76
2023/11/19 14:43:29;;;;;;;3.55;2.42;;;;;;;;;;5094616;28;20036;-75
2023/11/19 14:46:33;;;;;;;4.07;2.40;;;;;;;;;;5095354;28;20039;-75
2023/11/19 14:49:38;;;;;;;4.45;2.30;;;;;;;;;;5095686;28;20476;-75
2023/11/19 14:52:42;;;;;;;3.63;2.25;;;;;;;;;;5094384;28;20351;-75
2023/11/19 14:55:46;;;;;;;5.03;2.90;;;;;;;;;;5094243;28;20035;-75
2023/11/19 14:58:51;;;;;;;7.10;3.72;;;;;;;;;;5094082;28;20036;-74
2023/11/19 15:01:55;;;;;;;5.35;2.67;;;;;;;;;;5095265;28;20040;-74
2023/11/19 15:04:59;;;;;;;5.53;2.90;;;;;;;;;;5093697;28;20515;-74
2023/11/19 15:08:04;;;;;;;8.95;3.47;;;;;;;;;;5095988;28;20569;-74
2023/11/19 15:11:09;;;;;;;4.65;3.00;;;;;;;;;;5093919;28;20036;-74
2023/11/19 15:14:18;;;;;;;6.82;3.60;;;15.60;92.40;;;;;;5094434;28;20032;-74
2023/11/19 15:17:23;;;;;;;7.82;3.88;;;;;;;;;;5094885;28;20498;-75
2023/11/19 15:20:31;;;;;;;11.05;3.95;;;;;;;;;;5093710;28;20040;-75
2023/11/19 15:23:35;;;;;;;12.57;4.25;;;;;;;;;;5095761;28;20040;-74
2023/11/19 15:26:40;;;;;;;11.02;3.35;;;;;;;;;;5081707;28;20376;-74
2023/11/19 15:29:44;;;;;;;9.82;3.55;;;;;;;;;;5093517;28;20047;-74
2023/11/19 15:32:48;;;;;;;9.77;3.95;;;;;;;;;;5093856;28;20036;-74
2023/11/19 15:35:53;;;;;;;15.40;3.85;;;;;;;;;;5091793;28;20028;-73
2023/11/19 15:38:57;;;;;;;8.35;3.13;;;;;;;;;;5080016;28;20044;-74
2023/11/19 15:42:01;;;;;;;14.43;3.33;;;;;;;;;;5092952;28;20036;-74
2023/11/19 15:45:09;;;;;;;9.32;3.08;;;;;;;;;;5092087;28;20053;-75
2023/11/19 15:48:13;;;;;;;9.80;3.80;;;;;;;;;;5092518;28;20028;-74
2023/11/19 15:51:17;;;;;;;11.70;4.07;;;;;;;;;;5091834;28;20036;-75
2023/11/19 15:54:22;;;;;;;7.00;3.97;;;;;;;;;;5091823;28;20040;-74
2023/11/19 15:57:26;;;;;;;9.88;3.53;;;;;;;;;;5092544;28;20044;-74
2023/11/19 16:00:31;;;;;;;10.23;3.97;;;15.10;94.20;;;;;;5092157;28;20043;-73
2023/11/19 16:03:36;;;;;;;9.45;4.20;;;;;;;;;;5091455;28;20039;-74
2023/11/19 16:06:40;;;;;;;12.82;7.53;;;;;;;;;;5091136;28;20040;-74
2023/11/19 16:09:45;;;;;;;16.08;9.02;;;;;;;;;;5091292;28;20036;-74
2023/11/19 16:12:50;;;;;;;15.88;9.77;;;;;;;;;;5091424;28;20048;-74
2023/11/19 16:15:54;;;;;;;18.92;11.60;;;;;;;;;;5091232;28;20151;-74
2023/11/19 16:18:59;;;;;;;20.50;10.52;;;;;;;;;;5091199;28;20047;-74
2023/11/19 16:22:09;;;;;;;22.33;10.38;;;;;;;;;;5078643;28;20035;-74
2023/11/19 16:25:15;;;;;;;21.60;9.13;;;;;;;;;;5095008;28;20055;-74
2023/11/19 16:28:19;;;;;;;27.30;11.23;;;;;;;;;;5095284;28;20502;-74
2023/11/19 16:31:24;;;;;;;22.35;8.98;;;;;;;;;;5095210;28;20051;-74
2023/11/19 16:34:28;;;;;;;22.40;9.52;;;;;;;;;;5082941;28;20055;-74
2023/11/19 16:37:32;;;;;;;26.65;9.15;;;;;;;;;;5096412;28;20040;-74
2023/11/19 16:40:38;;;;;;;21.67;8.93;;;;;;;;;;5095639;28;20039;-74
2023/11/19 16:43:43;;;;;;;28.80;10.38;;;;;;;;;;5095343;28;20047;-74
2023/11/19 16:46:47;;;;;;;14.80;8.48;;;;;;;;;;5094875;28;20047;-75
2023/11/19 16:49:51;;;;;;;17.55;9.20;;;;;;;;;;5095132;28;20024;-75
2023/11/19 16:52:56;;;;;;;18.75;9.73;;;;;;;;;;5094827;28;20032;-74
2023/11/19 16:56:00;;;;;;;26.05;14.50;;;;;;;;;;5094474;28;20506;-75
2023/11/19 16:59:04;;;;;;;26.17;15.07;;;;;;;;;;5094903;28;20055;-75
2023/11/19 17:02:11;;;;;;;39.55;23.20;;;;;;;;;;5094632;28;20039;-74
2023/11/19 17:05:18;;;;;;;27.92;16.80;;;;;;;;;;5094611;28;20043;-75
2023/11/19 17:08:23;;;;;;;22.00;14.85;;;;;;;;;;5094627;28;20055;-74
2023/11/19 17:11:28;;;;;;;20.15;13.05;;;;;;;;;;5095254;28;20039;-74
2023/11/19 17:14:34;;;;;;;26.35;15.30;;;;;;;;;;5094798;28;20043;-74
2023/11/19 17:17:38;;;;;;;39.38;23.67;;;;;;;;;;5094489;28;20039;-73
2023/11/19 17:20:43;;;;;;;33.78;21.45;;;;;;;;;;5094285;28;20487;-75